createdAt,value
2022-08-17T00:02:26.970Z,20.66
2022-08-17T00:05:32.701Z,20.47
2022-08-17T00:08:43.948Z,20.40
2022-08-17T00:12:41.532Z,20.35
2022-08-17T00:15:12.113Z,20.28
2022-08-17T00:19:01.829Z,20.43
2022-08-17T00:22:29.520Z,20.35
2022-08-17T00:25:07.175Z,20.32
2022-08-17T00:28:09.557Z,20.28
2022-08-17T00:31:12.583Z,20.33
2022-08-17T00:34:14.708Z,20.38
2022-08-17T00:37:17.133Z,20.39
2022-08-17T00:40:20.452Z,20.28
2022-08-17T00:43:27.482Z,20.24
2022-08-17T00:46:40.358Z,20.22
2022-08-17T00:49:42.826Z,20.15
2022-08-17T00:52:55.942Z,20.19
2022-08-17T00:56:01.785Z,20.11
2022-08-17T00:59:07.432Z,20.16
2022-08-17T01:02:14.088Z,20.14
2022-08-17T01:05:23.515Z,20.02
2022-08-17T01:08:30.542Z,20.01
2022-08-17T01:11:33.135Z,20.24
2022-08-17T01:14:36.197Z,20.24
2022-08-17T01:17:38.413Z,20.21
2022-08-17T01:20:48.559Z,20.27
2022-08-17T01:23:50.983Z,20.36
2022-08-17T01:26:53.496Z,20.26
2022-08-17T01:30:04.134Z,20.20
2022-08-17T01:33:26.694Z,20.14
2022-08-17T01:36:28.867Z,20.46
2022-08-17T01:39:47.522Z,20.54
2022-08-17T01:42:59.280Z,20.42
2022-08-17T01:46:03.701Z,20.47
2022-08-17T01:49:09.919Z,20.36
2022-08-17T01:52:12.829Z,20.31
2022-08-17T01:55:22.471Z,20.25
2022-08-17T01:58:28.318Z,20.10
2022-08-17T02:01:32.797Z,20.07
2022-08-17T02:04:35.308Z,20.11
2022-08-17T02:07:59.688Z,19.92
2022-08-17T02:11:00.054Z,19.87
2022-08-17T02:14:05.103Z,19.78
2022-08-17T02:17:07.500Z,19.76
2022-08-17T02:20:10.662Z,19.73
2022-08-17T02:23:14.356Z,19.86
2022-08-17T02:26:25.763Z,19.90
2022-08-17T02:29:29.379Z,19.94
2022-08-17T02:32:31.532Z,19.87
2022-08-17T02:35:34.808Z,19.84
2022-08-17T02:38:38.502Z,19.82
2022-08-17T02:41:41.029Z,19.89
2022-08-17T02:44:43.519Z,19.92
2022-08-17T02:47:47.103Z,19.80
2022-08-17T02:50:49.394Z,19.74
2022-08-17T02:53:52.273Z,19.71
2022-08-17T02:56:54.403Z,19.79
2022-08-17T02:59:56.830Z,19.75
2022-08-17T03:02:58.960Z,19.58
2022-08-17T03:06:01.909Z,19.59
2022-08-17T03:09:04.711Z,19.50
2022-08-17T03:12:11.032Z,19.45
2022-08-17T03:15:22.557Z,19.46
2022-08-17T03:18:26.390Z,19.38
2022-08-17T03:21:28.774Z,19.43
2022-08-17T03:24:31.368Z,19.33
2022-08-17T03:27:33.509Z,19.31
2022-08-17T03:30:36.429Z,19.29
2022-08-17T03:33:38.538Z,19.40
2022-08-17T03:36:41.139Z,19.32
2022-08-17T03:39:43.304Z,19.34
2022-08-17T03:42:45.878Z,19.21
2022-08-17T03:46:10.979Z,19.21
2022-08-17T03:49:47.660Z,19.15
2022-08-17T03:53:08.972Z,19.15
2022-08-17T03:56:29.718Z,19.12
2022-08-17T03:59:32.726Z,19.31
2022-08-17T04:02:36.035Z,19.60
2022-08-17T04:05:39.101Z,19.87
2022-08-17T04:08:42.095Z,19.95
2022-08-17T04:11:44.933Z,20.03
2022-08-17T04:14:53.382Z,20.23
2022-08-17T04:17:57.144Z,20.29
2022-08-17T04:20:59.472Z,20.36
2022-08-17T04:24:02.963Z,20.55
2022-08-17T04:27:05.361Z,20.48
2022-08-17T04:30:08.588Z,20.61
2022-08-17T04:33:17.350Z,20.87
2022-08-17T04:36:19.885Z,20.79
2022-08-17T04:39:24.097Z,20.78
2022-08-17T04:42:26.539Z,20.86
2022-08-17T04:45:31.255Z,21.18
2022-08-17T04:48:39.581Z,21.28
2022-08-17T04:51:45.574Z,21.40
2022-08-17T04:54:57.993Z,21.51
2022-08-17T04:58:00.173Z,21.67
2022-08-17T05:01:03.094Z,21.79
2022-08-17T05:04:32.815Z,21.91
2022-08-17T05:07:31.820Z,22.14
2022-08-17T05:10:37.760Z,22.30
2022-08-17T05:13:50.232Z,22.35
2022-08-17T05:16:52.538Z,22.41
2022-08-17T05:19:55.088Z,22.51
2022-08-17T05:23:01.260Z,22.51
2022-08-17T05:26:04.196Z,22.64
2022-08-17T05:29:09.318Z,22.87
2022-08-17T05:32:37.219Z,23.08
2022-08-17T05:35:42.572Z,23.36
2022-08-17T05:38:44.955Z,24.25
2022-08-17T05:41:48.156Z,24.99
2022-08-17T05:44:50.547Z,27.27
2022-08-17T05:47:52.654Z,28.04
2022-08-17T05:51:06.292Z,29.43
2022-08-17T05:54:14.550Z,34.16
2022-08-17T05:57:22.561Z,37.87
2022-08-17T06:00:31.296Z,40.29
2022-08-17T06:03:52.382Z,41.30
2022-08-17T06:07:10.369Z,40.99
2022-08-17T06:10:34.866Z,41.18
2022-08-17T06:14:01.644Z,41.87
2022-08-17T06:17:08.603Z,42.98
2022-08-17T06:20:16.931Z,42.39
2022-08-17T06:23:43.441Z,44.49
2022-08-17T06:26:46.463Z,44.02
2022-08-17T06:30:06.889Z,43.97
2022-08-17T06:33:19.403Z,43.70
2022-08-17T06:36:43.113Z,41.73
2022-08-17T06:39:48.864Z,42.49
2022-08-17T06:43:26.156Z,44.07
2022-08-17T06:46:34.385Z,45.07
2022-08-17T06:49:55.301Z,45.92
2022-08-17T06:53:08.455Z,44.40
2022-08-17T06:56:13.611Z,48.23
2022-08-17T06:59:19.573Z,48.89
2022-08-17T07:02:52.431Z,48.22
2022-08-17T07:06:03.760Z,46.28
2022-08-17T07:09:18.794Z,46.46
2022-08-17T07:12:26.450Z,46.05
2022-08-17T07:15:42.355Z,47.42
2022-08-17T07:18:45.392Z,47.61
2022-08-17T07:22:03.082Z,45.64
2022-08-17T07:25:08.404Z,46.51
2022-08-17T07:28:12.953Z,42.69
2022-08-17T07:31:17.388Z,40.53
2022-08-17T07:34:19.762Z,37.94
2022-08-17T07:37:21.843Z,35.40
2022-08-17T07:40:29.393Z,33.88
2022-08-17T07:43:31.510Z,33.03
2022-08-17T07:47:05.369Z,32.01
2022-08-17T07:50:28.859Z,31.38
2022-08-17T07:53:32.005Z,30.37
2022-08-17T07:56:57.523Z,30.24
2022-08-17T07:59:59.813Z,30.14
2022-08-17T08:03:24.641Z,29.84
2022-08-17T08:06:28.855Z,29.69
2022-08-17T08:09:42.050Z,29.84
2022-08-17T08:12:46.015Z,30.05
2022-08-17T08:15:54.598Z,29.84
2022-08-17T08:19:01.032Z,29.88
2022-08-17T08:22:09.550Z,29.75
2022-08-17T08:25:23.928Z,29.68
2022-08-17T08:28:35.649Z,29.94
2022-08-17T08:32:01.095Z,29.93
2022-08-17T08:35:31.517Z,29.68
2022-08-17T08:38:40.088Z,29.52
2022-08-17T08:42:00.379Z,29.61
2022-08-17T08:45:09.244Z,29.65
2022-08-17T08:48:55.717Z,29.67
2022-08-17T08:52:00.191Z,29.56
2022-08-17T08:55:27.972Z,29.62
2022-08-17T08:58:42.366Z,29.92
2022-08-17T09:01:59.782Z,30.07
2022-08-17T09:05:16.504Z,30.25
2022-08-17T09:08:37.099Z,30.39
2022-08-17T09:12:01.755Z,30.46
2022-08-17T09:15:13.326Z,30.66
2022-08-17T09:19:00.458Z,30.61
2022-08-17T09:21:54.417Z,30.85
2022-08-17T09:25:06.878Z,31.04
2022-08-17T09:28:19.274Z,31.15
2022-08-17T09:31:32.771Z,31.31
2022-08-17T09:34:43.513Z,31.25
2022-08-17T09:38:03.826Z,31.54
2022-08-17T09:41:23.089Z,31.59
2022-08-17T09:44:31.078Z,31.79
2022-08-17T09:47:53.856Z,32.57
2022-08-17T09:51:13.807Z,34.32
2022-08-17T09:54:41.500Z,36.01
2022-08-17T09:58:05.135Z,38.09
2022-08-17T10:01:36.825Z,37.72
2022-08-17T10:04:58.056Z,38.22
2022-08-17T10:08:21.906Z,37.28
2022-08-17T10:11:52.253Z,37.11
2022-08-17T10:15:22.542Z,37.54
2022-08-17T10:18:49.559Z,37.94
2022-08-17T10:22:34.494Z,40.45
2022-08-17T10:26:14.999Z,39.56
2022-08-17T10:29:32.705Z,35.70
2022-08-17T10:33:14.405Z,37.68
2022-08-17T10:36:32.927Z,38.04
2022-08-17T10:40:00.629Z,36.31
2022-08-17T10:43:20.160Z,37.71
2022-08-17T10:46:55.401Z,38.82
2022-08-17T10:50:36.953Z,39.97
2022-08-17T10:53:42.162Z,41.61
2022-08-17T10:56:50.294Z,38.60
2022-08-17T10:59:54.961Z,36.89
2022-08-17T11:02:58.509Z,35.11
2022-08-17T11:06:15.946Z,36.39
2022-08-17T11:09:43.217Z,35.31
2022-08-17T11:13:26.651Z,34.56
2022-08-17T11:17:04.861Z,36.82
2022-08-17T11:20:38.741Z,36.18
2022-08-17T11:23:57.556Z,38.07
2022-08-17T11:27:12.439Z,39.76
2022-08-17T11:30:35.942Z,41.05
2022-08-17T11:33:39.212Z,42.28
2022-08-17T11:36:49.489Z,41.65
2022-08-17T11:40:09.847Z,41.99
2022-08-17T11:43:32.344Z,42.15
2022-08-17T11:47:15.654Z,40.56
2022-08-17T11:50:43.845Z,39.41
2022-08-17T11:53:46.187Z,40.04
2022-08-17T11:56:50.632Z,41.11
2022-08-17T12:00:05.026Z,41.74
2022-08-17T12:03:32.039Z,41.49
2022-08-17T12:06:43.870Z,41.35
2022-08-17T12:09:50.421Z,41.30
2022-08-17T12:12:54.770Z,42.55
2022-08-17T12:15:58.687Z,42.80
2022-08-17T12:19:02.850Z,42.37
2022-08-17T12:22:26.486Z,41.90
2022-08-17T12:25:56.623Z,42.36
2022-08-17T12:29:02.554Z,42.34
2022-08-17T12:32:07.039Z,41.83
2022-08-17T12:35:29.733Z,42.28
2022-08-17T12:38:38.224Z,42.90
2022-08-17T12:41:44.056Z,42.86
2022-08-17T12:44:50.515Z,41.32
2022-08-17T12:48:06.503Z,39.88
2022-08-17T12:51:08.915Z,39.06
2022-08-17T12:54:27.190Z,37.52
2022-08-17T12:57:32.747Z,37.46
2022-08-17T13:00:47.260Z,35.74
2022-08-17T13:03:52.575Z,35.89
2022-08-17T13:06:59.852Z,37.24
2022-08-17T13:10:04.052Z,38.05
2022-08-17T13:13:38.159Z,39.45
2022-08-17T13:16:40.485Z,39.78
2022-08-17T13:19:49.733Z,40.28
2022-08-17T13:22:58.231Z,39.86
2022-08-17T13:26:14.835Z,38.08
2022-08-17T13:29:28.875Z,38.06
2022-08-17T13:32:31.206Z,37.94
2022-08-17T13:35:39.336Z,37.65
2022-08-17T13:38:50.894Z,37.91
2022-08-17T13:41:55.361Z,37.54
2022-08-17T13:44:58.844Z,37.43
2022-08-17T13:48:13.770Z,37.14
2022-08-17T13:51:27.218Z,36.77
2022-08-17T13:54:34.140Z,36.46
2022-08-17T13:57:36.880Z,36.48
2022-08-17T14:00:40.302Z,36.83
2022-08-17T14:03:42.740Z,36.80
2022-08-17T14:06:52.990Z,36.31
2022-08-17T14:10:13.404Z,35.71
2022-08-17T14:13:15.573Z,35.47
2022-08-17T14:16:17.932Z,35.53
2022-08-17T14:19:21.872Z,35.70
2022-08-17T14:22:36.009Z,35.47
2022-08-17T14:25:38.213Z,35.59
2022-08-17T14:28:53.577Z,35.54
2022-08-17T14:32:04.259Z,35.37
2022-08-17T14:35:08.702Z,35.43
2022-08-17T14:38:10.796Z,35.36
2022-08-17T14:41:13.251Z,35.24
2022-08-17T14:44:15.655Z,34.89
2022-08-17T14:47:18.095Z,35.00
2022-08-17T14:50:21.191Z,35.23
2022-08-17T14:53:24.782Z,35.39
2022-08-17T14:56:27.226Z,35.29
2022-08-17T14:59:35.501Z,35.11
2022-08-17T15:02:53.813Z,34.86
2022-08-17T15:05:56.377Z,34.93
2022-08-17T15:08:58.500Z,34.85
2022-08-17T15:12:02.135Z,34.76
2022-08-17T15:15:05.614Z,34.82
2022-08-17T15:18:08.339Z,34.82
2022-08-17T15:21:10.835Z,34.61
2022-08-17T15:24:14.029Z,34.59
2022-08-17T15:27:16.188Z,34.52
2022-08-17T15:30:34.068Z,34.44
2022-08-17T15:33:36.272Z,34.52
2022-08-17T15:36:49.134Z,34.40
2022-08-17T15:39:52.191Z,34.28
2022-08-17T15:42:54.771Z,34.29
2022-08-17T15:46:01.228Z,34.20
2022-08-17T15:49:03.708Z,34.23
2022-08-17T15:52:16.910Z,34.15
2022-08-17T15:55:24.013Z,34.14
2022-08-17T15:58:29.989Z,33.99
2022-08-17T16:03:01.285Z,34.05
2022-08-17T16:05:10.128Z,33.93
2022-08-17T16:08:15.893Z,33.93
2022-08-17T16:11:22.456Z,33.70
2022-08-17T16:14:33.870Z,33.58
2022-08-17T16:17:39.857Z,33.51
2022-08-17T16:20:43.005Z,33.56
2022-08-17T16:23:47.501Z,33.44
2022-08-17T16:26:49.664Z,33.41
2022-08-17T16:29:52.095Z,33.28
2022-08-17T16:32:59.837Z,33.20
2022-08-17T16:36:02.321Z,33.00
2022-08-17T16:39:04.770Z,32.87
2022-08-17T16:42:24.426Z,32.91
2022-08-17T16:45:29.267Z,32.83
2022-08-17T16:48:31.670Z,32.69
2022-08-17T16:51:34.614Z,32.61
2022-08-17T16:54:39.182Z,32.48
2022-08-17T16:57:47.500Z,32.27
2022-08-17T17:00:54.314Z,32.22
2022-08-17T17:04:02.464Z,32.36
2022-08-17T17:07:14.828Z,32.21
2022-08-17T17:10:22.236Z,31.80
2022-08-17T17:13:32.380Z,31.82
2022-08-17T17:16:40.566Z,31.60
2022-08-17T17:19:53.190Z,31.39
2022-08-17T17:23:07.112Z,31.49
2022-08-17T17:26:27.669Z,31.55
2022-08-17T17:29:55.815Z,31.46
2022-08-17T17:33:17.464Z,31.13
2022-08-17T17:36:27.749Z,30.99
2022-08-17T17:39:55.865Z,30.70
2022-08-17T17:43:09.441Z,30.59
2022-08-17T17:46:37.774Z,30.31
2022-08-17T17:49:44.244Z,30.32
2022-08-17T17:53:19.001Z,30.19
2022-08-17T17:57:11.533Z,30.19
2022-08-17T18:00:20.625Z,30.30
2022-08-17T18:03:42.702Z,30.04
2022-08-17T18:06:57.034Z,29.75
2022-08-17T18:10:29.675Z,29.43
2022-08-17T18:13:52.055Z,29.18
2022-08-17T18:16:59.569Z,29.00
2022-08-17T18:20:03.810Z,28.97
2022-08-17T18:23:06.567Z,28.75
2022-08-17T18:26:08.754Z,28.59
2022-08-17T18:29:34.224Z,28.47
2022-08-17T18:32:43.488Z,28.27
2022-08-17T18:35:58.877Z,28.13
2022-08-17T18:39:15.222Z,27.90
2022-08-17T18:42:33.799Z,27.73
2022-08-17T18:45:43.437Z,27.55
2022-08-17T18:48:54.182Z,27.39
2022-08-17T18:52:16.571Z,27.24
2022-08-17T18:55:24.719Z,27.12
2022-08-17T18:58:26.944Z,26.92
2022-08-17T19:01:59.934Z,26.84
2022-08-17T19:05:30.646Z,26.79
2022-08-17T19:08:35.942Z,26.75
2022-08-17T19:11:39.661Z,26.71
2022-08-17T19:14:43.423Z,26.69
2022-08-17T19:17:59.363Z,26.64
2022-08-17T19:21:14.859Z,26.57
2022-08-17T19:24:22.955Z,26.52
2022-08-17T19:27:41.961Z,26.42
2022-08-17T19:30:50.347Z,26.29
2022-08-17T19:33:54.737Z,26.29
2022-08-17T19:37:02.020Z,26.19
2022-08-17T19:40:41.779Z,26.16
2022-08-17T19:43:54.450Z,26.13
2022-08-17T19:47:08.221Z,26.08
2022-08-17T19:50:16.576Z,25.99
2022-08-17T19:53:47.381Z,25.98
2022-08-17T19:57:18.251Z,26.19
2022-08-17T20:00:20.867Z,26.11
2022-08-17T20:03:26.302Z,25.94
2022-08-17T20:06:32.914Z,25.78
2022-08-17T20:09:43.091Z,25.62
2022-08-17T20:12:48.778Z,25.48
2022-08-17T20:15:51.291Z,25.41
2022-08-17T20:19:04.678Z,25.32
2022-08-17T20:22:17.152Z,25.21
2022-08-17T20:25:35.453Z,25.09
2022-08-17T20:28:41.301Z,24.92
2022-08-17T20:31:55.611Z,24.92
2022-08-17T20:35:08.403Z,24.97
2022-08-17T20:38:30.943Z,24.89
2022-08-17T20:42:04.495Z,24.87
2022-08-17T20:45:21.546Z,24.68
2022-08-17T20:48:38.110Z,24.61
2022-08-17T20:52:01.176Z,24.49
2022-08-17T20:55:04.862Z,24.47
2022-08-17T20:58:15.976Z,24.39
2022-08-17T21:01:34.594Z,24.32
2022-08-17T21:05:00.745Z,24.18
2022-08-17T21:08:16.110Z,24.13
2022-08-17T21:11:58.247Z,24.12
2022-08-17T21:15:16.369Z,24.03
2022-08-17T21:18:25.883Z,23.93
2022-08-17T21:21:57.872Z,23.90
2022-08-17T21:25:12.229Z,23.77
2022-08-17T21:28:34.164Z,23.80
2022-08-17T21:31:41.262Z,23.75
2022-08-17T21:35:11.107Z,23.74
2022-08-17T21:38:15.483Z,23.75
2022-08-17T21:41:33.678Z,23.67
2022-08-17T21:44:46.361Z,23.52
2022-08-17T21:48:09.258Z,23.41
2022-08-17T21:51:21.079Z,23.34
2022-08-17T21:54:47.747Z,23.28
2022-08-17T21:57:53.066Z,23.22
2022-08-17T22:01:20.910Z,23.13
2022-08-17T22:04:31.099Z,23.05
2022-08-17T22:07:36.721Z,23.03
2022-08-17T22:10:42.159Z,23.04
2022-08-17T22:13:46.353Z,23.03
2022-08-17T22:17:05.361Z,22.96
2022-08-17T22:20:15.811Z,22.89
2022-08-17T22:23:59.883Z,22.86
2022-08-17T22:27:11.854Z,22.91
2022-08-17T22:30:47.117Z,22.81
2022-08-17T22:33:52.339Z,22.80
2022-08-17T22:37:20.920Z,22.82
2022-08-17T22:40:34.438Z,22.76
2022-08-17T22:43:38.427Z,22.69
2022-08-17T22:47:24.158Z,22.61
2022-08-17T22:50:29.587Z,22.58
2022-08-17T22:53:50.429Z,22.54
2022-08-17T22:57:21.632Z,22.60
2022-08-17T23:00:29.463Z,22.65
2022-08-17T23:03:31.866Z,22.69
2022-08-17T23:06:37.327Z,22.59
2022-08-17T23:09:39.748Z,22.54
2022-08-17T23:12:42.050Z,22.64
2022-08-17T23:15:45.846Z,22.64
2022-08-17T23:18:50.660Z,22.61
2022-08-17T23:21:55.507Z,22.63
2022-08-17T23:24:58.522Z,22.77
2022-08-17T23:28:01.819Z,22.71
2022-08-17T23:31:07.798Z,22.71
2022-08-17T23:34:13.594Z,22.66
2022-08-17T23:37:17.920Z,22.66
2022-08-17T23:40:20.347Z,22.66
2022-08-17T23:43:24.393Z,22.65
2022-08-17T23:46:28.198Z,22.63
2022-08-17T23:49:31.711Z,22.62
2022-08-17T23:52:36.884Z,22.62
2022-08-17T23:55:39.000Z,22.65
2022-08-17T23:58:43.138Z,22.68
